createdAt,value
2019-04-25T00:00:22.417Z,22.79
2019-04-25T00:01:22.458Z,23.89
2019-04-25T00:02:22.394Z,31.39
2019-04-25T00:03:22.399Z,28.89
2019-04-25T00:04:22.373Z,28.10
2019-04-25T00:05:22.363Z,27.50
2019-04-25T00:06:23.052Z,42.79
2019-04-25T00:07:22.392Z,47.20
2019-04-25T00:08:22.330Z,68.09
2019-04-25T00:09:22.322Z,59.79
2019-04-25T00:10:22.318Z,65.80
2019-04-25T00:11:22.297Z,67.19
2019-04-25T00:12:22.388Z,59.29
2019-04-25T00:13:22.376Z,49.29
2019-04-25T00:14:22.697Z,56.79
2019-04-25T00:15:22.442Z,75.40
2019-04-25T00:16:22.246Z,49.90
2019-04-25T00:17:22.235Z,44.29
2019-04-25T00:18:23.371Z,44.29
2019-04-25T00:19:22.260Z,43.50
2019-04-25T00:20:22.199Z,57.20
2019-04-25T00:21:22.192Z,50.00
2019-04-25T00:22:22.176Z,45.90
2019-04-25T00:23:22.167Z,34.40
2019-04-25T00:24:23.799Z,34.70
2019-04-25T00:25:22.198Z,37.09
2019-04-25T00:26:22.134Z,38.29
2019-04-25T00:27:23.763Z,47.09
2019-04-25T00:28:22.113Z,30.60
2019-04-25T00:29:22.203Z,48.20
2019-04-25T00:30:22.581Z,22.50
2019-04-25T00:31:22.137Z,27.39
2019-04-25T00:32:22.072Z,25.79
2019-04-25T00:33:22.061Z,22.00
2019-04-25T00:34:22.055Z,23.39
2019-04-25T00:35:22.036Z,17.70
2019-04-25T00:36:22.027Z,19.29
2019-04-25T00:37:22.632Z,16.10
2019-04-25T00:38:22.278Z,19.60
2019-04-25T00:39:21.997Z,15.19
2019-04-25T00:40:22.027Z,24.50
2019-04-25T00:41:21.978Z,18.00
2019-04-25T00:42:23.218Z,19.89
2019-04-25T00:43:22.103Z,22.89
2019-04-25T00:44:22.056Z,18.20
2019-04-25T00:45:22.341Z,15.19
2019-04-25T00:46:22.565Z,10.89
2019-04-25T00:47:21.908Z,5.00
2019-04-25T00:48:22.328Z,7.40
2019-04-25T00:49:23.583Z,10.89
2019-04-25T00:50:22.010Z,10.39
2019-04-25T00:51:21.870Z,20.00
2019-04-25T00:52:22.836Z,28.39
2019-04-25T00:53:21.844Z,25.20
2019-04-25T00:54:22.699Z,14.39
2019-04-25T00:55:28.493Z,11.60
2019-04-25T00:56:48.290Z,12.10
2019-04-25T00:57:46.753Z,11.39
2019-04-25T00:58:46.810Z,11.19
2019-04-25T00:59:46.891Z,26.89
2019-04-25T01:00:46.942Z,25.70
2019-04-25T01:01:47.925Z,16.50
2019-04-25T01:02:47.326Z,21.10
2019-04-25T01:03:47.174Z,21.20
2019-04-25T01:04:47.195Z,15.30
2019-04-25T01:05:47.467Z,14.60
2019-04-25T01:06:47.525Z,31.50
2019-04-25T01:07:46.507Z,30.79
2019-04-25T01:08:46.496Z,34.50
2019-04-25T01:09:46.485Z,28.60
2019-04-25T01:10:46.476Z,85.40
2019-04-25T01:11:46.464Z,53.29
2019-04-25T01:12:46.503Z,31.29
2019-04-25T01:13:46.455Z,24.89
2019-04-25T01:14:46.530Z,26.10
2019-04-25T01:15:46.462Z,21.50
2019-04-25T01:16:46.542Z,22.50
2019-04-25T01:17:46.976Z,17.89
2019-04-25T01:18:46.795Z,24.60
2019-04-25T01:19:46.781Z,17.89
2019-04-25T01:20:46.961Z,17.39
2019-04-25T01:21:46.993Z,16.70
2019-04-25T01:22:47.173Z,13.80
2019-04-25T01:23:47.265Z,13.39
2019-04-25T01:24:47.212Z,19.89
2019-04-25T01:25:47.063Z,33.20
2019-04-25T01:26:46.301Z,19.89
2019-04-25T01:27:46.298Z,24.29
2019-04-25T01:28:46.285Z,19.20
2019-04-25T01:29:46.358Z,32.29
2019-04-25T01:30:46.385Z,21.29
2019-04-25T01:31:46.624Z,21.39
2019-04-25T01:32:46.773Z,24.20
2019-04-25T01:33:46.773Z,27.89
2019-04-25T01:34:47.027Z,34.90
2019-04-25T01:35:47.259Z,30.79
2019-04-25T01:36:47.177Z,31.10
2019-04-25T01:37:47.375Z,32.00
2019-04-25T01:38:47.314Z,24.20
2019-04-25T01:39:47.448Z,27.39
2019-04-25T01:40:47.128Z,28.60
2019-04-25T01:41:47.579Z,22.60
2019-04-25T01:42:46.180Z,23.89
2019-04-25T01:43:46.118Z,24.60
2019-04-25T01:44:46.105Z,24.89
2019-04-25T01:45:46.096Z,17.29
2019-04-25T01:46:46.085Z,20.70
2019-04-25T01:47:46.130Z,28.29
2019-04-25T01:48:46.073Z,30.10
2019-04-25T01:49:46.056Z,27.39
2019-04-25T01:50:46.042Z,32.09
2019-04-25T01:51:46.028Z,25.20
2019-04-25T01:52:46.023Z,27.00
2019-04-25T01:53:46.062Z,44.79
2019-04-25T01:54:46.000Z,30.89
2019-04-25T01:55:55.989Z,42.70
2019-04-25T01:57:10.791Z,43.40
2019-04-25T01:58:10.779Z,46.90
2019-04-25T01:59:10.822Z,55.50
2019-04-25T02:00:10.759Z,43.59
2019-04-25T02:01:10.749Z,34.79
2019-04-25T02:02:10.737Z,36.79
2019-04-25T02:03:10.734Z,32.90
2019-04-25T02:04:10.715Z,29.20
2019-04-25T02:05:10.803Z,30.29
2019-04-25T02:06:10.699Z,32.29
2019-04-25T02:07:10.684Z,35.50
2019-04-25T02:08:10.671Z,24.60
2019-04-25T02:09:10.660Z,27.00
2019-04-25T02:10:10.650Z,26.20
2019-04-25T02:11:10.738Z,19.60
2019-04-25T02:12:10.629Z,22.10
2019-04-25T02:13:10.617Z,27.70
2019-04-25T02:14:10.608Z,39.59
2019-04-25T02:15:10.597Z,33.79
2019-04-25T02:16:10.838Z,42.20
2019-04-25T02:17:10.575Z,29.79
2019-04-25T02:18:10.564Z,34.20
2019-04-25T02:19:10.554Z,36.79
2019-04-25T02:20:10.543Z,41.90
2019-04-25T02:21:10.531Z,44.09
2019-04-25T02:22:10.572Z,45.70
2019-04-25T02:23:10.513Z,35.59
2019-04-25T02:24:10.499Z,45.90
2019-04-25T02:25:10.489Z,40.00
2019-04-25T02:26:16.027Z,37.40
2019-04-25T02:27:35.331Z,58.40
2019-04-25T02:28:35.321Z,67.00
2019-04-25T02:29:35.313Z,55.29
2019-04-25T02:30:35.793Z,53.79
2019-04-25T02:31:35.288Z,60.40
2019-04-25T02:32:37.197Z,73.90
2019-04-25T02:33:35.269Z,73.40
2019-04-25T02:34:35.263Z,56.00
2019-04-25T02:35:35.249Z,64.59
2019-04-25T02:36:35.263Z,64.19
2019-04-25T02:37:35.317Z,64.59
2019-04-25T02:38:35.269Z,56.90
2019-04-25T02:39:37.330Z,53.09
2019-04-25T02:40:35.199Z,41.90
2019-04-25T02:41:35.186Z,43.79
2019-04-25T02:42:35.173Z,47.29
2019-04-25T02:43:35.334Z,35.70
2019-04-25T02:44:35.254Z,30.60
2019-04-25T02:45:35.140Z,22.89
2019-04-25T02:46:37.240Z,27.29
2019-04-25T02:47:35.121Z,30.39
2019-04-25T02:48:35.108Z,45.59
2019-04-25T02:49:38.882Z,42.70
2019-04-25T02:50:35.238Z,38.90
2019-04-25T02:51:35.145Z,53.50
2019-04-25T02:52:35.064Z,58.20
2019-04-25T02:53:37.294Z,64.80
2019-04-25T02:54:35.053Z,37.40
2019-04-25T02:55:37.565Z,41.20
2019-04-25T02:56:38.709Z,56.20
2019-04-25T02:57:35.020Z,51.00
2019-04-25T02:58:35.006Z,75.00
2019-04-25T02:59:36.962Z,64.00
2019-04-25T03:00:51.323Z,40.00
2019-04-25T03:02:00.731Z,48.70
2019-04-25T03:03:01.000Z,53.90
2019-04-25T03:04:00.956Z,58.20
2019-04-25T03:05:01.173Z,70.30
2019-04-25T03:06:01.451Z,62.20
2019-04-25T03:07:00.695Z,65.30
2019-04-25T03:08:01.270Z,75.69
2019-04-25T03:09:00.304Z,66.19
2019-04-25T03:09:59.823Z,113.50
2019-04-25T03:10:59.892Z,125.59
2019-04-25T03:11:59.981Z,119.59
2019-04-25T03:14:00.523Z,107.59
2019-04-25T03:15:00.126Z,123.09
2019-04-25T03:16:00.579Z,116.90
2019-04-25T03:17:00.411Z,168.89
2019-04-25T03:18:00.202Z,137.19
2019-04-25T03:19:00.548Z,139.30
2019-04-25T03:20:01.234Z,110.50
2019-04-25T03:21:01.163Z,115.50
2019-04-25T03:22:01.400Z,92.00
2019-04-25T03:23:01.132Z,92.00
2019-04-25T03:24:01.320Z,130.39
2019-04-25T03:25:00.339Z,106.69
2019-04-25T03:27:00.802Z,20.60
2019-04-25T03:27:59.678Z,17.79
2019-04-25T03:28:59.720Z,36.29
2019-04-25T03:29:59.736Z,36.59
2019-04-25T03:30:59.856Z,59.50
2019-04-25T03:32:00.939Z,54.29
2019-04-25T03:33:02.210Z,44.59
2019-04-25T03:34:02.182Z,56.09
2019-04-25T03:35:01.155Z,46.59
2019-04-25T03:35:59.511Z,31.79
2019-04-25T03:36:59.500Z,30.89
2019-04-25T03:38:00.472Z,30.20
2019-04-25T03:38:59.999Z,35.40
2019-04-25T03:39:59.468Z,30.60
2019-04-25T03:41:00.175Z,28.79
2019-04-25T03:41:59.444Z,29.10
2019-04-25T03:42:59.435Z,23.70
2019-04-25T03:43:59.475Z,24.39
2019-04-25T03:44:59.412Z,25.60
2019-04-25T03:45:59.399Z,20.60
2019-04-25T03:46:59.392Z,25.29
2019-04-25T03:47:59.379Z,21.10
2019-04-25T03:48:59.369Z,21.20
2019-04-25T03:49:59.409Z,12.50
2019-04-25T03:50:59.345Z,16.29
2019-04-25T03:51:59.336Z,13.50
2019-04-25T03:52:59.325Z,24.79
2019-04-25T03:53:59.313Z,21.00
2019-04-25T03:54:59.302Z,21.20
2019-04-25T03:56:59.384Z,23.89
2019-04-25T03:57:59.272Z,13.19
2019-04-25T03:58:59.259Z,21.89
2019-04-25T03:59:59.247Z,17.70
2019-04-25T04:00:59.244Z,20.10
2019-04-25T04:02:01.165Z,20.29
2019-04-25T04:02:59.266Z,17.79
2019-04-25T04:03:59.205Z,13.19
2019-04-25T04:04:59.194Z,16.50
2019-04-25T04:05:59.184Z,16.50
2019-04-25T04:06:59.173Z,17.70
2019-04-25T04:07:59.162Z,15.69
2019-04-25T04:08:59.249Z,8.00
2019-04-25T04:09:59.140Z,7.30
2019-04-25T04:10:59.130Z,16.00
2019-04-25T04:11:59.119Z,19.10
2019-04-25T04:12:59.109Z,10.69
2019-04-25T04:13:59.098Z,20.50
2019-04-25T04:14:59.187Z,21.89
2019-04-25T04:15:59.077Z,21.60
2019-04-25T04:16:59.064Z,10.50
2019-04-25T04:17:59.053Z,19.00
2019-04-25T04:18:59.042Z,19.39
2019-04-25T04:19:59.032Z,18.50
2019-04-25T04:20:59.118Z,10.19
2019-04-25T04:21:59.007Z,11.60
2019-04-25T04:22:58.997Z,11.69
2019-04-25T04:23:58.985Z,11.39
2019-04-25T04:24:58.978Z,13.80
2019-04-25T04:25:58.966Z,14.69
2019-04-25T04:27:03.613Z,20.10
2019-04-25T04:28:23.756Z,23.89
2019-04-25T04:29:25.495Z,22.00
2019-04-25T04:30:24.216Z,11.80
2019-04-25T04:31:23.728Z,15.19
2019-04-25T04:32:24.250Z,16.39
2019-04-25T04:33:31.907Z,13.30
2019-04-25T04:34:48.508Z,19.29
2019-04-25T04:35:48.497Z,19.29
2019-04-25T04:36:48.485Z,18.29
2019-04-25T04:37:48.524Z,24.20
2019-04-25T04:38:48.538Z,23.20
2019-04-25T04:39:48.471Z,32.00
2019-04-25T04:40:48.442Z,23.89
2019-04-25T04:41:48.432Z,20.29
2019-04-25T04:42:48.421Z,15.69
2019-04-25T04:43:48.458Z,18.50
2019-04-25T04:44:48.400Z,23.00
2019-04-25T04:45:48.388Z,21.20
2019-04-25T04:46:48.377Z,22.79
2019-04-25T04:47:48.367Z,22.20
2019-04-25T04:48:48.505Z,15.50
2019-04-25T04:49:48.345Z,14.80
2019-04-25T04:50:48.337Z,19.39
2019-04-25T04:51:48.323Z,20.70
2019-04-25T04:52:48.311Z,22.70
2019-04-25T04:53:48.300Z,17.20
2019-04-25T04:54:48.388Z,13.10
2019-04-25T04:55:48.280Z,10.00
2019-04-25T04:56:48.266Z,8.00
2019-04-25T04:57:48.255Z,11.69
2019-04-25T04:58:48.247Z,6.09
2019-04-25T04:59:48.234Z,7.80
2019-04-25T05:00:48.273Z,6.69
2019-04-25T05:01:48.214Z,10.60
2019-04-25T05:02:48.202Z,10.30
2019-04-25T05:03:48.193Z,9.80
2019-04-25T05:04:48.178Z,10.10
2019-04-25T05:05:48.226Z,8.69
2019-04-25T05:06:48.160Z,7.19
2019-04-25T05:07:48.150Z,7.40
2019-04-25T05:08:48.140Z,11.10
2019-04-25T05:09:48.127Z,11.10
2019-04-25T05:10:48.115Z,9.50
2019-04-25T05:11:48.154Z,13.00
2019-04-25T05:12:48.094Z,12.60
2019-04-25T05:13:48.087Z,11.60
2019-04-25T05:14:48.073Z,9.39
2019-04-25T05:15:48.064Z,14.50
2019-04-25T05:16:49.553Z,20.10
2019-04-25T05:17:48.125Z,55.09
2019-04-25T05:18:48.034Z,36.79
2019-04-25T05:19:48.018Z,25.89
2019-04-25T05:20:48.010Z,33.50
2019-04-25T05:21:48.001Z,38.00
2019-04-25T05:22:48.139Z,34.00
2019-04-25T05:23:47.978Z,24.70
2019-04-25T05:24:47.965Z,21.00
2019-04-25T05:25:47.955Z,14.00
2019-04-25T05:26:47.942Z,17.29
2019-04-25T05:27:59.673Z,88.40
2019-04-25T05:28:49.125Z,95.69
2019-04-25T05:29:47.912Z,96.09
2019-04-25T05:30:47.902Z,277.70
2019-04-25T05:31:47.893Z,63.20
2019-04-25T05:32:48.013Z,66.19
2019-04-25T05:33:47.873Z,154.30
2019-04-25T05:34:49.315Z,56.09
2019-04-25T05:35:47.849Z,25.10
2019-04-25T05:36:47.837Z,18.89
2019-04-25T05:37:47.827Z,19.00
2019-04-25T05:38:47.818Z,14.89
2019-04-25T05:39:47.804Z,20.00
2019-04-25T05:41:47.936Z,21.89
2019-04-25T05:42:47.774Z,17.60
2019-04-25T05:43:47.761Z,18.29
2019-04-25T05:44:47.754Z,17.00
2019-04-25T05:45:47.740Z,15.19
2019-04-25T05:46:47.817Z,16.20
2019-04-25T05:47:47.770Z,16.20
2019-04-25T05:48:47.710Z,16.79
2019-04-25T05:49:47.705Z,16.70
2019-04-25T05:50:47.693Z,14.89
2019-04-25T05:51:47.677Z,15.19
2019-04-25T05:52:47.666Z,14.30
2019-04-25T05:53:47.754Z,17.29
2019-04-25T05:54:47.646Z,15.60
2019-04-25T05:55:47.635Z,16.00
2019-04-25T05:56:47.623Z,18.89
2019-04-25T05:57:50.113Z,14.50
2019-04-25T05:58:47.601Z,14.39
2019-04-25T05:59:47.743Z,17.79
2019-04-25T06:00:47.580Z,12.19
2019-04-25T06:01:47.570Z,12.19
2019-04-25T06:02:47.557Z,13.89
2019-04-25T06:03:47.548Z,14.10
2019-04-25T06:04:47.537Z,12.60
2019-04-25T06:05:47.582Z,12.69
2019-04-25T06:06:47.515Z,15.19
2019-04-25T06:07:47.508Z,13.80
2019-04-25T06:08:47.495Z,12.50
2019-04-25T06:09:47.485Z,16.50
2019-04-25T06:10:47.525Z,14.00
2019-04-25T06:11:47.463Z,17.00
2019-04-25T06:12:47.451Z,17.20
2019-04-25T06:13:47.440Z,17.39
2019-04-25T06:14:47.430Z,17.79
2019-04-25T06:15:47.668Z,18.50
2019-04-25T06:16:47.407Z,13.69
2019-04-25T06:17:47.397Z,13.89
2019-04-25T06:18:47.384Z,17.00
2019-04-25T06:19:47.377Z,15.80
2019-04-25T06:20:47.363Z,16.89
2019-04-25T06:21:47.455Z,17.70
2019-04-25T06:22:47.342Z,19.50
2019-04-25T06:23:47.331Z,20.39
2019-04-25T06:24:47.321Z,17.10
2019-04-25T06:25:47.308Z,14.50
2019-04-25T06:26:47.300Z,16.29
2019-04-25T06:27:56.369Z,17.20
2019-04-25T06:29:13.413Z,14.80
2019-04-25T06:30:12.079Z,14.80
2019-04-25T06:31:13.678Z,18.20
2019-04-25T06:32:14.114Z,21.10
2019-04-25T06:34:13.975Z,20.29
2019-04-25T06:35:12.024Z,19.60
2019-04-25T06:36:12.013Z,17.79
2019-04-25T06:37:12.003Z,26.20
2019-04-25T06:38:13.373Z,25.29
2019-04-25T06:39:11.980Z,19.29
2019-04-25T06:40:13.730Z,17.39
2019-04-25T06:41:13.445Z,21.10
2019-04-25T06:42:11.951Z,21.29
2019-04-25T06:43:13.473Z,25.10
2019-04-25T06:44:13.617Z,20.00
2019-04-25T06:45:13.531Z,20.39
2019-04-25T06:46:12.006Z,25.29
2019-04-25T06:47:13.042Z,25.70
2019-04-25T06:48:11.883Z,26.70
2019-04-25T06:49:13.399Z,32.00
2019-04-25T06:50:11.859Z,33.29
2019-04-25T06:51:13.417Z,35.79
2019-04-25T06:52:11.887Z,23.29
2019-04-25T06:53:13.478Z,42.70
2019-04-25T06:54:13.460Z,35.70
2019-04-25T06:55:11.806Z,41.20
2019-04-25T06:56:13.568Z,39.29
2019-04-25T06:57:11.786Z,31.29
2019-04-25T06:58:14.072Z,33.70
2019-04-25T06:59:13.557Z,21.39
2019-04-25T07:00:11.750Z,18.60
2019-04-25T07:01:13.315Z,28.79
2019-04-25T07:02:11.730Z,19.39
2019-04-25T07:03:11.718Z,21.29
2019-04-25T07:04:11.757Z,16.39
2019-04-25T07:05:25.595Z,21.70
2019-04-25T07:06:12.980Z,19.20
2019-04-25T07:07:14.358Z,18.29
2019-04-25T07:08:13.193Z,27.50
2019-04-25T07:09:11.652Z,32.70
2019-04-25T07:10:13.247Z,20.39
2019-04-25T07:11:11.632Z,22.60
2019-04-25T07:12:13.397Z,16.29
2019-04-25T07:13:11.608Z,18.20
2019-04-25T07:14:11.596Z,32.59
2019-04-25T07:15:11.639Z,20.10
2019-04-25T07:16:13.278Z,34.09
2019-04-25T07:17:11.570Z,19.39
2019-04-25T07:18:11.561Z,19.60
2019-04-25T07:19:11.551Z,21.79
2019-04-25T07:20:11.540Z,18.79
2019-04-25T07:21:11.570Z,21.79
2019-04-25T07:22:11.517Z,14.00
2019-04-25T07:23:11.501Z,14.19
2019-04-25T07:24:11.489Z,16.10
2019-04-25T07:25:13.086Z,30.39
2019-04-25T07:26:11.466Z,12.80
2019-04-25T07:27:11.558Z,11.50
2019-04-25T07:28:22.222Z,12.80
2019-04-25T07:29:13.448Z,29.00
2019-04-25T07:30:11.426Z,14.80
2019-04-25T07:31:11.417Z,14.39
2019-04-25T07:32:11.552Z,13.30
2019-04-25T07:33:11.394Z,19.10
2019-04-25T07:34:11.379Z,59.20
2019-04-25T07:35:11.368Z,19.20
2019-04-25T07:36:11.438Z,11.19
2019-04-25T07:37:13.147Z,18.89
2019-04-25T07:38:11.388Z,14.39
2019-04-25T07:39:11.325Z,12.69
2019-04-25T07:40:11.317Z,8.50
2019-04-25T07:41:14.076Z,10.69
2019-04-25T07:42:11.294Z,8.60
2019-04-25T07:43:11.283Z,6.59
2019-04-25T07:44:11.372Z,12.50
2019-04-25T07:45:11.321Z,13.80
2019-04-25T07:46:11.259Z,10.00
2019-04-25T07:47:11.246Z,57.20
2019-04-25T07:48:11.230Z,15.19
2019-04-25T07:49:11.218Z,12.60
2019-04-25T07:50:11.356Z,12.69
2019-04-25T07:51:11.198Z,17.39
2019-04-25T07:52:11.593Z,8.80
2019-04-25T07:53:11.173Z,8.30
2019-04-25T07:54:11.163Z,12.10
2019-04-25T07:55:11.156Z,13.19
2019-04-25T07:56:11.241Z,7.40
2019-04-25T07:57:11.133Z,8.00
2019-04-25T07:58:11.124Z,8.30
2019-04-25T07:59:11.111Z,5.59
2019-04-25T08:00:11.102Z,6.80
2019-04-25T08:01:11.091Z,6.69
2019-04-25T08:02:13.271Z,7.00
2019-04-25T08:03:11.070Z,9.00
2019-04-25T08:04:11.060Z,7.19
2019-04-25T08:05:11.050Z,6.69
2019-04-25T08:06:11.039Z,9.00
2019-04-25T08:07:11.379Z,6.59
2019-04-25T08:08:11.021Z,6.40
2019-04-25T08:09:11.007Z,7.00
2019-04-25T08:10:10.993Z,5.90
2019-04-25T08:11:10.987Z,5.59
2019-04-25T08:12:11.323Z,5.69
2019-04-25T08:13:10.962Z,9.39
2019-04-25T08:14:10.956Z,9.39
2019-04-25T08:15:10.940Z,7.40
2019-04-25T08:16:10.930Z,8.39
2019-04-25T08:17:10.921Z,6.90
2019-04-25T08:18:10.955Z,7.19
2019-04-25T08:19:10.897Z,8.19
2019-04-25T08:20:10.885Z,8.19
2019-04-25T08:21:10.877Z,8.69
2019-04-25T08:22:10.866Z,7.40
2019-04-25T08:23:10.853Z,7.80
2019-04-25T08:24:10.892Z,6.00
2019-04-25T08:25:10.830Z,7.80
2019-04-25T08:26:10.820Z,8.69
2019-04-25T08:27:10.810Z,7.90
2019-04-25T08:28:10.804Z,7.19
2019-04-25T08:29:10.791Z,7.30
2019-04-25T08:30:11.031Z,11.60
2019-04-25T08:31:10.769Z,10.10
2019-04-25T08:32:10.757Z,11.10
2019-04-25T08:33:10.741Z,11.89
2019-04-25T08:34:10.732Z,11.39
2019-04-25T08:35:10.719Z,10.69
2019-04-25T08:36:10.758Z,11.39
2019-04-25T08:37:18.191Z,13.60
2019-04-25T08:38:36.107Z,17.79
2019-04-25T08:39:37.323Z,17.70
2019-04-25T08:40:37.310Z,20.00
2019-04-25T08:41:36.045Z,19.29
2019-04-25T08:42:36.691Z,18.00
2019-04-25T08:43:37.804Z,20.60
2019-04-25T08:44:35.981Z,20.39
2019-04-25T08:45:37.044Z,22.29
2019-04-25T08:46:36.843Z,16.39
2019-04-25T08:47:36.170Z,17.89
2019-04-25T08:48:35.812Z,16.29
2019-04-25T08:49:36.257Z,16.20
2019-04-25T08:50:38.656Z,16.10
2019-04-25T08:51:36.094Z,15.30
2019-04-25T08:52:36.324Z,13.19
2019-04-25T08:53:36.538Z,15.30
2019-04-25T08:54:39.706Z,18.29
2019-04-25T08:56:00.138Z,19.79
2019-04-25T08:57:00.127Z,19.20
2019-04-25T08:58:00.134Z,17.39
2019-04-25T08:59:04.169Z,17.50
2019-04-25T09:00:24.912Z,19.00
2019-04-25T09:01:24.903Z,19.20
2019-04-25T09:02:24.891Z,18.20
2019-04-25T09:03:24.881Z,16.39
2019-04-25T09:05:24.909Z,17.60
2019-04-25T09:06:24.848Z,17.50
2019-04-25T09:07:24.841Z,17.10
2019-04-25T09:08:24.830Z,17.29
2019-04-25T09:09:24.820Z,18.10
2019-04-25T09:10:24.810Z,18.29
2019-04-25T09:11:25.049Z,17.10
2019-04-25T09:12:24.788Z,18.29
2019-04-25T09:13:24.780Z,18.00
2019-04-25T09:14:24.770Z,18.79
2019-04-25T09:15:24.759Z,18.79
2019-04-25T09:16:24.750Z,20.89
2019-04-25T09:17:24.790Z,19.39
2019-04-25T09:18:24.727Z,19.00
2019-04-25T09:19:24.716Z,17.79
2019-04-25T09:20:24.708Z,19.29
2019-04-25T09:21:24.698Z,17.29
2019-04-25T09:22:24.685Z,19.50
2019-04-25T09:23:24.726Z,20.00
2019-04-25T09:24:24.709Z,21.10
2019-04-25T09:25:24.655Z,19.10
2019-04-25T09:26:24.648Z,19.79
2019-04-25T09:27:24.634Z,21.39
2019-04-25T09:28:24.624Z,20.89
2019-04-25T09:29:24.766Z,18.50
2019-04-25T09:30:24.603Z,18.60
2019-04-25T09:31:24.594Z,19.10
2019-04-25T09:32:24.584Z,19.10
2019-04-25T09:33:24.574Z,19.70
2019-04-25T09:34:24.567Z,19.60
2019-04-25T09:36:24.589Z,16.70
2019-04-25T09:37:24.701Z,15.00
2019-04-25T09:38:24.521Z,15.69
2019-04-25T09:39:24.514Z,15.30
2019-04-25T09:40:24.501Z,14.69
2019-04-25T09:41:24.490Z,14.80
2019-04-25T09:43:24.574Z,13.39
2019-04-25T09:44:24.460Z,15.69
2019-04-25T09:45:26.310Z,13.50
2019-04-25T09:46:24.442Z,14.39
2019-04-25T09:47:24.432Z,13.50
2019-04-25T09:48:24.416Z,14.19
2019-04-25T09:49:24.507Z,15.30
2019-04-25T09:50:24.398Z,15.60
2019-04-25T09:51:24.389Z,16.50
2019-04-25T09:52:24.474Z,14.69
2019-04-25T09:53:25.996Z,14.80
2019-04-25T09:54:24.365Z,13.60
2019-04-25T09:55:24.398Z,12.30
2019-04-25T09:56:24.336Z,13.00
2019-04-25T09:57:24.324Z,13.19
2019-04-25T09:58:24.317Z,15.89
2019-04-25T09:59:27.948Z,12.60
2019-04-25T10:00:24.445Z,14.30
2019-04-25T10:01:24.284Z,14.80
2019-04-25T10:02:24.276Z,11.39
2019-04-25T10:03:24.261Z,11.60
2019-04-25T10:04:24.253Z,11.69
2019-04-25T10:05:24.245Z,13.30
2019-04-25T10:06:24.287Z,15.00
2019-04-25T10:07:24.221Z,13.30
2019-04-25T10:08:24.296Z,14.69
2019-04-25T10:09:24.205Z,14.10
2019-04-25T10:10:24.221Z,15.19
2019-04-25T10:11:24.183Z,12.19
2019-04-25T10:12:24.224Z,12.30
2019-04-25T10:13:25.250Z,15.60
2019-04-25T10:14:24.535Z,13.50
2019-04-25T10:15:24.139Z,12.89
2019-04-25T10:16:24.128Z,12.50
2019-04-25T10:17:24.618Z,13.30
2019-04-25T10:18:24.111Z,14.30
2019-04-25T10:19:24.100Z,11.50
2019-04-25T10:20:24.088Z,13.00
2019-04-25T10:21:24.077Z,16.39
2019-04-25T10:22:24.118Z,12.89
2019-04-25T10:23:24.164Z,15.50
2019-04-25T10:24:24.050Z,13.50
2019-04-25T10:25:24.035Z,13.10
2019-04-25T10:26:24.027Z,14.39
2019-04-25T10:27:24.221Z,15.30
2019-04-25T10:28:24.006Z,13.30
2019-04-25T10:29:23.998Z,17.29
2019-04-25T10:30:25.918Z,11.50
2019-04-25T10:31:23.974Z,11.19
2019-04-25T10:32:23.965Z,13.19
2019-04-25T10:33:24.370Z,13.39
2019-04-25T10:34:24.219Z,11.89
2019-04-25T10:35:23.974Z,11.89
2019-04-25T10:36:24.663Z,11.10
2019-04-25T10:37:23.913Z,10.00
2019-04-25T10:38:24.198Z,10.80
2019-04-25T10:39:23.982Z,10.50
2019-04-25T10:40:25.043Z,11.00
2019-04-25T10:41:24.440Z,11.30
2019-04-25T10:42:23.991Z,11.39
2019-04-25T10:43:24.068Z,13.30
2019-04-25T10:44:24.523Z,15.00
2019-04-25T10:45:25.945Z,14.60
2019-04-25T10:46:24.433Z,15.80
2019-04-25T10:47:23.812Z,15.00
2019-04-25T10:48:24.118Z,15.89
2019-04-25T10:49:23.786Z,19.79
2019-04-25T10:51:24.076Z,15.89
2019-04-25T10:52:23.751Z,14.50
2019-04-25T10:53:25.182Z,16.20
2019-04-25T10:54:23.731Z,18.39
2019-04-25T10:55:23.721Z,17.39
2019-04-25T10:56:24.309Z,18.29
2019-04-25T10:57:24.930Z,15.19
2019-04-25T10:58:23.687Z,15.80
2019-04-25T10:59:23.702Z,20.70
2019-04-25T11:00:24.136Z,15.39
2019-04-25T11:01:24.399Z,15.80
2019-04-25T11:02:23.677Z,17.70
2019-04-25T11:03:24.133Z,19.00
2019-04-25T11:04:23.624Z,16.39
2019-04-25T11:05:23.913Z,18.20
2019-04-25T11:06:23.607Z,15.89
2019-04-25T11:07:23.590Z,17.70
2019-04-25T11:08:24.550Z,16.89
2019-04-25T11:09:24.281Z,19.10
2019-04-25T11:10:23.658Z,17.10
2019-04-25T11:11:24.100Z,18.60
2019-04-25T11:12:23.604Z,17.39
2019-04-25T11:13:23.528Z,20.39
2019-04-25T11:14:23.977Z,16.60
2019-04-25T11:15:23.604Z,16.10
2019-04-25T11:16:24.220Z,19.70
2019-04-25T11:17:24.278Z,18.00
2019-04-25T11:18:23.838Z,18.39
2019-04-25T11:19:23.964Z,18.50
2019-04-25T11:20:23.456Z,15.80
2019-04-25T11:22:23.984Z,13.10
2019-04-25T11:23:23.425Z,12.00
2019-04-25T11:24:23.805Z,16.60
2019-04-25T11:25:24.046Z,11.19
2019-04-25T11:26:23.390Z,15.39
2019-04-25T11:27:23.962Z,10.60
2019-04-25T11:28:23.623Z,12.10
2019-04-25T11:29:24.021Z,17.70
2019-04-25T11:30:23.373Z,17.10
2019-04-25T11:31:23.639Z,11.80
2019-04-25T11:32:23.819Z,13.89
2019-04-25T11:33:24.651Z,17.00
2019-04-25T11:34:23.414Z,13.50
2019-04-25T11:35:24.188Z,13.60
2019-04-25T11:36:24.865Z,16.10
2019-04-25T11:37:23.908Z,15.89
2019-04-25T11:38:23.736Z,15.89
2019-04-25T11:39:23.939Z,16.10
2019-04-25T11:40:23.494Z,15.80
2019-04-25T11:41:24.244Z,16.50
2019-04-25T11:42:23.378Z,16.50
2019-04-25T11:43:23.216Z,17.60
2019-04-25T11:44:24.557Z,15.50
2019-04-25T11:45:23.292Z,16.00
2019-04-25T11:46:24.174Z,16.10
2019-04-25T11:47:24.258Z,13.60
2019-04-25T11:48:23.827Z,17.00
2019-04-25T11:49:23.843Z,16.10
2019-04-25T11:50:23.141Z,14.30
2019-04-25T11:51:24.023Z,14.69
2019-04-25T11:52:28.198Z,12.69
2019-04-25T11:53:48.458Z,14.80
2019-04-25T11:54:48.176Z,16.70
2019-04-25T11:55:49.289Z,14.39
2019-04-25T11:56:48.630Z,15.89
2019-04-25T11:57:50.068Z,15.60
2019-04-25T11:58:48.900Z,14.10
2019-04-25T11:59:49.306Z,15.00
2019-04-25T12:00:48.834Z,16.10
2019-04-25T12:01:47.839Z,14.89
2019-04-25T12:02:47.878Z,15.10
2019-04-25T12:03:48.960Z,12.60
2019-04-25T12:04:48.163Z,13.30
2019-04-25T12:05:48.395Z,14.19
2019-04-25T12:06:47.787Z,15.30
2019-04-25T12:07:47.956Z,11.19
2019-04-25T12:08:47.810Z,9.69
2019-04-25T12:09:48.144Z,9.69
2019-04-25T12:10:47.901Z,7.59
2019-04-25T12:11:48.517Z,9.50
2019-04-25T12:12:47.721Z,10.39
2019-04-25T12:13:48.105Z,9.50
2019-04-25T12:14:47.949Z,8.50
2019-04-25T12:15:47.687Z,11.19
2019-04-25T12:16:50.087Z,11.69
2019-04-25T12:17:47.668Z,12.00
2019-04-25T12:18:50.029Z,11.39
2019-04-25T12:19:47.646Z,9.30
2019-04-25T12:20:48.703Z,10.60
2019-04-25T12:21:48.170Z,11.30
2019-04-25T12:22:48.290Z,10.89
2019-04-25T12:23:48.727Z,12.19
2019-04-25T12:24:47.893Z,11.60
2019-04-25T12:25:47.629Z,11.69
2019-04-25T12:26:48.677Z,11.60
2019-04-25T12:27:49.863Z,10.50
2019-04-25T12:28:47.551Z,10.60
2019-04-25T12:29:47.547Z,24.50
2019-04-25T12:30:47.529Z,25.89
2019-04-25T12:31:47.711Z,16.39
2019-04-25T12:32:47.974Z,31.50
2019-04-25T12:33:48.657Z,12.00
2019-04-25T12:34:47.545Z,9.60
2019-04-25T12:35:47.952Z,11.89
2019-04-25T12:36:47.576Z,12.50
2019-04-25T12:37:48.142Z,10.80
2019-04-25T12:38:48.350Z,11.80
2019-04-25T12:39:48.422Z,9.80
2019-04-25T12:40:48.192Z,10.10
2019-04-25T12:41:49.053Z,11.30
2019-04-25T12:42:47.878Z,10.30
2019-04-25T12:43:47.391Z,9.19
2019-04-25T12:44:48.598Z,13.00
2019-04-25T12:45:47.370Z,11.80
2019-04-25T12:46:48.437Z,9.89
2019-04-25T12:47:47.662Z,12.00
2019-04-25T12:48:47.645Z,12.50
2019-04-25T12:49:47.330Z,17.20
2019-04-25T12:50:47.926Z,29.60
2019-04-25T12:51:47.780Z,27.79
2019-04-25T12:52:48.595Z,24.79
2019-04-25T12:53:48.007Z,15.80
2019-04-25T12:54:47.586Z,12.30
2019-04-25T12:55:47.483Z,11.89
2019-04-25T12:56:47.482Z,11.50
2019-04-25T12:57:48.146Z,11.80
2019-04-25T12:58:47.978Z,9.69
2019-04-25T12:59:47.385Z,9.80
2019-04-25T13:00:49.391Z,9.69
2019-04-25T13:01:47.196Z,10.50
2019-04-25T13:02:47.237Z,9.30
2019-04-25T13:03:48.107Z,12.89
2019-04-25T13:04:47.837Z,11.00
2019-04-25T13:05:47.290Z,11.00
2019-04-25T13:06:48.689Z,9.10
2019-04-25T13:07:47.132Z,8.50
2019-04-25T13:08:47.273Z,11.00